Flight Track Log - Related Links

Times and Time Zones

All times are in EDT time to prevent confusion due to time zone crossing. See the C-FSUG flight status page for this flight to view local times or setup timezone preferences in your user account.

Time Position Orientation Groundspeed Altitude Reporting Facility
EDT Latitude Longitude Course Direction KTS MPH feet Rate Location/Type
Fri 04:16:44 PM 53.5667 -113.5833 329° Northwest 140 161 3,100  Level Edmonton Center
Fri 04:17:44 PM 53.6000 -113.6167 289° West 160 184 5,400 2,300 Climbing Edmonton Center
Fri 04:18:44 PM 53.6167 -113.7000 293° West 170 196 7,700 2,050 Climbing Edmonton Center
Fri 04:19:44 PM 53.6333 -113.7667 293° West 160 184 9,500 1,850 Climbing Edmonton Center
Fri 04:20:44 PM 53.6500 -113.8333 310° West 160 184 11,400 1,950 Climbing Edmonton Center
Fri 04:21:44 PM 53.6833 -113.9000 304° West 160 184 13,400 1,800 Climbing Edmonton Center
Fri 04:22:44 PM 53.7167 -113.9833 270° West 170 196 15,000 1,700 Climbing Edmonton Center
Fri 04:23:44 PM 53.7167 -114.0500 310° West 170 196 16,800 1,850 Climbing Edmonton Center
Fri 04:24:44 PM 53.7500 -114.1167 304° West 180 207 18,700 1,550 Climbing Edmonton Center
Fri 04:25:44 PM 53.7833 -114.2000 286° West 190 219 19,900 650 Climbing Edmonton Center
Fri 04:26:44 PM 53.8000 -114.3000 310° West 220 253 20,000 50 Climbing Edmonton Center
Fri 04:27:44 PM 53.8500 -114.4000 296° West 250 288 20,000  Level Edmonton Center
Fri 04:28:44 PM 53.8833 -114.5167 300° West 260 299 20,000  Level Edmonton Center
Fri 04:29:44 PM 53.9167 -114.6167 296° West 260 299 20,000  Level Edmonton Center
Fri 04:30:44 PM 53.9500 -114.7333 300° West 260 299 20,000  Level Edmonton Center
Fri 04:31:44 PM 53.9833 -114.8333 296° West 260 299 20,000  Level Edmonton Center
Fri 04:32:44 PM 54.0167 -114.9500 300° West 260 299 20,000  Level Edmonton Center
Fri 04:33:44 PM 54.0500 -115.0500 293° West 260 299 20,000  Level Edmonton Center
Fri 04:34:44 PM 54.0833 -115.1833 304° West 250 288 20,000  Level Edmonton Center
Fri 04:35:44 PM 54.1167 -115.2667 293° West 260 299 20,000  Level Edmonton Center
Fri 04:36:44 PM 54.1500 -115.4000 300° West 250 288 20,000  Level Edmonton Center
Fri 04:37:44 PM 54.1833 -115.5000 300° West 260 299 20,000  Level Edmonton Center
Fri 04:38:44 PM 54.2167 -115.6000 296° West 260 299 20,000  Level Edmonton Center
Fri 04:39:44 PM 54.2500 -115.7167 300° West 260 299 20,000  Level Edmonton Center
Fri 04:40:44 PM 54.2833 -115.8167 293° West 260 299 20,000  Level Edmonton Center
Fri 04:41:44 PM 54.3167 -115.9500 311° West 260 299 20,000  Level Edmonton Center
Fri 04:42:44 PM 54.3667 -116.0500 289° West 260 299 20,000  Level Edmonton Center
Fri 04:43:44 PM 54.3833 -116.1333 303° West 260 299 20,000  Level Edmonton Center
Fri 04:44:44 PM 54.4333 -116.2667 286° West 260 299 20,000  Level Edmonton Center
Fri 04:45:44 PM 54.4500 -116.3667 303° West 260 299 20,000  Level Edmonton Center
Fri 04:46:44 PM 54.5000 -116.5000 300° West 260 299 20,000  Level Edmonton Center
Fri 04:47:44 PM 54.5333 -116.6000 305° West 260 299 20,000  Level Edmonton Center
Fri 04:48:44 PM 54.5667 -116.6833 293° West 260 299 20,000  Level Edmonton Center
Fri 04:49:44 PM 54.6000 -116.8167 300° West 260 299 20,000  Level Edmonton Center
Fri 04:50:44 PM 54.6333 -116.9167 293° West 260 299 20,000  Level Edmonton Center
Fri 04:51:44 PM 54.6667 -117.0500 300° West 260 299 20,000  Level Edmonton Center
Fri 04:52:44 PM 54.7000 -117.1500 293° West 260 299 20,000  Level Edmonton Center
Fri 04:53:44 PM 54.7333 -117.2833 305° West 260 299 20,000  Level Edmonton Center
Fri 04:54:44 PM 54.7667 -117.3667 296° West 260 299 20,000  Level Edmonton Center
Fri 04:55:44 PM 54.8000 -117.4833 284° West 260 299 20,000 -50 Level Edmonton Center
Fri 04:56:44 PM 54.8167 -117.6000 303° West 260 299 19,900 -750 Descending Edmonton Center
Fri 04:57:44 PM 54.8667 -117.7333 294° West 270 311 18,500 -1,600 Descending Edmonton Center
Fri 04:58:44 PM 54.9000 -117.8667 300° West 290 334 16,700 -1,700 Descending Edmonton Center
Fri 04:59:44 PM 54.9333 -117.9667 303° West 290 334 15,100 -1,800 Descending Edmonton Center
Fri 05:00:44 PM 54.9833 -118.1000 294° West 290 334 13,100 -2,000 Descending Edmonton Center
Fri 05:01:44 PM 55.0167 -118.2333 286° West 270 311 11,100 -1,950 Descending Edmonton Center
Fri 05:02:44 PM 55.0333 -118.3333 294° West 270 311 9,200 -1,550 Descending Edmonton Center
Fri 05:03:44 PM 55.0667 -118.4667 300° West 250 288 8,000 -1,150 Descending Edmonton Center
Fri 05:04:44 PM 55.1000 -118.5667 294° West 230 265 6,900 -1,350 Descending Edmonton Center
Fri 05:05:44 PM 55.1167 -118.6333 300° West 210 242 5,300 -1,550 Descending Edmonton Center
Fri 05:06:44 PM 55.1500 -118.7333 270° West 180 207 3,800 -950 Descending Edmonton Center
Fri 05:07:44 PM 55.1500 -118.8000 311° West 140 161 3,400 -250 Descending Edmonton Center
Fri 05:08:44 PM 55.1667 -118.8333 270° West 120 138 3,300 -400 Descending Edmonton Center
Fri 05:09:44 PM 55.1667 -118.8833 246° West 110 127 2,600 -600 Descending Edmonton Center
Fri 05:10:44 PM 55.1500 -118.9500 246° West 100 115 2,100 -500 Descending Edmonton Center

Login

Don't have an account? Register now (free) for customized features, flight alerts, and more!